sensor_id;sensor_type;location;lat;lon;timestamp;pressure;altitude;pressure_sealevel;temperature;humidity
73316;BME280;61545;53.726;-0.444;2023-08-01T00:03:59;993.3;;;15.0;100.0
73316;BME280;61545;53.726;-0.444;2023-08-01T00:08:59;993.3;;;unknown;100.0
73316;BME280;61545;53.726;-0.444;2023-08-01T00:13:59;993.3;;;14.9;100.0
73316;BME280;61545;53.726;-0.444;2023-08-01T00:18:59;993.3;;;unknown;100.0
73316;BME280;61545;53.726;-0.444;2023-08-01T00:23:59;993.3;;;15.0;100.0
73316;BME280;61545;53.726;-0.444;2023-08-01T00:28:59;993.3;;;15.1;100.0
73316;BME280;61545;53.726;-0.444;2023-08-01T00:33:59;993.3;;;15.1;100.0
73316;BME280;61545;53.726;-0.444;2023-08-01T00:38:59;993.3;;;unknown;100.0
73316;BME280;61545;53.726;-0.444;2023-08-01T00:43:59;993.3;;;15.0;100.0
73316;BME280;61545;53.726;-0.444;2023-08-01T00:48:59;993.2;;;15.0;100.0
73316;BME280;61545;53.726;-0.444;2023-08-01T00:53:59;993.2;;;unknown;100.0
73316;BME280;61545;53.726;-0.444;2023-08-01T00:59:00;993.3;;;15.0;100.0
73316;BME280;61545;53.726;-0.444;2023-08-01T01:03:59;993.2;;;14.9;100.0
73316;BME280;61545;53.726;-0.444;2023-08-01T01:08:59;993.3;;;15.0;100.0
73316;BME280;61545;53.726;-0.444;2023-08-01T01:13:59;993.3;;;14.9;100.0
73316;BME280;61545;53.726;-0.444;2023-08-01T01:18:59;993.3;;;unknown;100.0
73316;BME280;61545;53.726;-0.444;2023-08-01T01:23:59;993.3;;;15.0;100.0
73316;BME280;61545;53.726;-0.444;2023-08-01T01:28:59;993.2;;;15.0;100.0
73316;BME280;61545;53.726;-0.444;2023-08-01T01:33:59;993.2;;;14.9;100.0
73316;BME280;61545;53.726;-0.444;2023-08-01T01:38:59;993.3;;;14.9;100.0
73316;BME280;61545;53.726;-0.444;2023-08-01T01:43:59;993.3;;;unknown;100.0
73316;BME280;61545;53.726;-0.444;2023-08-01T01:48:59;993.3;;;unknown;100.0
73316;BME280;61545;53.726;-0.444;2023-08-01T01:53:59;993.3;;;14.8;100.0
73316;BME280;61545;53.726;-0.444;2023-08-01T01:58:59;993.4;;;unknown;100.0
73316;BME280;61545;53.726;-0.444;2023-08-01T02:03:59;993.4;;;unknown;100.0
73316;BME280;61545;53.726;-0.444;2023-08-01T02:09:00;993.4;;;14.8;100.0
73316;BME280;61545;53.726;-0.444;2023-08-01T02:13:59;993.4;;;14.6;100.0
73316;BME280;61545;53.726;-0.444;2023-08-01T02:18:59;993.4;;;14.7;100.0
73316;BME280;61545;53.726;-0.444;2023-08-01T02:23:59;993.4;;;14.7;100.0
73316;BME280;61545;53.726;-0.444;2023-08-01T02:28:59;993.3;;;14.6;100.0
73316;BME280;61545;53.726;-0.444;2023-08-01T02:33:59;993.3;;;14.5;100.0
73316;BME280;61545;53.726;-0.444;2023-08-01T02:38:59;993.2;;;unknown;100.0
73316;BME280;61545;53.726;-0.444;2023-08-01T02:43:59;993.2;;;14.5;100.0
73316;BME280;61545;53.726;-0.444;2023-08-01T02:48:59;993.2;;;14.4;100.0
73316;BME280;61545;53.726;-0.444;2023-08-01T02:53:59;993.2;;;14.5;100.0
73316;BME280;61545;53.726;-0.444;2023-08-01T02:58:59;993.2;;;14.4;100.0
73316;BME280;61545;53.726;-0.444;2023-08-01T03:03:59;993.2;;;14.5;100.0
73316;BME280;61545;53.726;-0.444;2023-08-01T03:08:59;993.2;;;14.6;100.0
73316;BME280;61545;53.726;-0.444;2023-08-01T03:13:59;993.2;;;14.5;100.0
73316;BME280;61545;53.726;-0.444;2023-08-01T03:18:59;993.3;;;14.4;100.0
73316;BME280;61545;53.726;-0.444;2023-08-01T03:23:59;993.3;;;14.3;100.0
73316;BME280;61545;53.726;-0.444;2023-08-01T03:28:59;993.3;;;14.4;100.0
73316;BME280;61545;53.726;-0.444;2023-08-01T03:33:59;993.3;;;unknown;100.0
73316;BME280;61545;53.726;-0.444;2023-08-01T03:38:59;993.2;;;14.4;100.0
73316;BME280;61545;53.726;-0.444;2023-08-01T03:43:59;993.2;;;14.4;100.0
73316;BME280;61545;53.726;-0.444;2023-08-01T03:48:59;993.2;;;unknown;100.0
73316;BME280;61545;53.726;-0.444;2023-08-01T03:53:59;993.3;;;14.4;100.0
73316;BME280;61545;53.726;-0.444;2023-08-01T03:58:59;993.2;;;unknown;100.0
73316;BME280;61545;53.726;-0.444;2023-08-01T04:03:59;993.2;;;14.4;100.0
73316;BME280;61545;53.726;-0.444;2023-08-01T04:08:59;993.2;;;14.4;100.0
73316;BME280;61545;53.726;-0.444;2023-08-01T04:13:59;993.2;;;14.4;100.0
73316;BME280;61545;53.726;-0.444;2023-08-01T04:18:59;993.3;;;14.3;100.0
73316;BME280;61545;53.726;-0.444;2023-08-01T04:23:59;993.3;;;unknown;100.0
73316;BME280;61545;53.726;-0.444;2023-08-01T04:28:59;993.4;;;14.4;100.0
73316;BME280;61545;53.726;-0.444;2023-08-01T04:33:59;993.4;;;unknown;100.0
73316;BME280;61545;53.726;-0.444;2023-08-01T04:38:59;993.4;;;14.4;100.0
73316;BME280;61545;53.726;-0.444;2023-08-01T04:43:59;993.4;;;14.4;100.0
73316;BME280;61545;53.726;-0.444;2023-08-01T04:48:59;993.5;;;unknown;100.0
73316;BME280;61545;53.726;-0.444;2023-08-01T04:53:59;993.5;;;14.5;100.0
73316;BME280;61545;53.726;-0.444;2023-08-01T04:58:59;993.6;;;14.4;100.0
73316;BME280;61545;53.726;-0.444;2023-08-01T05:03:59;993.7;;;14.4;100.0
73316;BME280;61545;53.726;-0.444;2023-08-01T05:08:59;993.7;;;14.4;100.0
73316;BME280;61545;53.726;-0.444;2023-08-01T05:13:59;993.7;;;14.4;100.0
73316;BME280;61545;53.726;-0.444;2023-08-01T05:18:59;993.7;;;14.4;100.0
73316;BME280;61545;53.726;-0.444;2023-08-01T05:23:59;993.7;;;14.5;100.0
73316;BME280;61545;53.726;-0.444;2023-08-01T05:28:59;993.6;;;14.5;100.0
73316;BME280;61545;53.726;-0.444;2023-08-01T05:33:59;993.6;;;14.5;100.0
73316;BME280;61545;53.726;-0.444;2023-08-01T05:38:59;993.7;;;14.6;100.0
73316;BME280;61545;53.726;-0.444;2023-08-01T05:43:59;993.9;;;14.5;100.0
73316;BME280;61545;53.726;-0.444;2023-08-01T05:48:59;993.9;;;14.5;100.0
73316;BME280;61545;53.726;-0.444;2023-08-01T05:53:59;993.9;;;14.5;100.0
73316;BME280;61545;53.726;-0.444;2023-08-01T05:58:59;993.9;;;14.6;100.0
73316;BME280;61545;53.726;-0.444;2023-08-01T06:03:59;993.9;;;14.6;100.0
73316;BME280;61545;53.726;-0.444;2023-08-01T06:08:59;994.0;;;14.7;100.0
73316;BME280;61545;53.726;-0.444;2023-08-01T06:13:59;994.0;;;14.8;100.0
73316;BME280;61545;53.726;-0.444;2023-08-01T06:18:59;994.1;;;14.8;100.0
73316;BME280;61545;53.726;-0.444;2023-08-01T06:23:59;994.0;;;16.3;100.0
73316;BME280;61545;53.726;-0.444;2023-08-01T06:28:59;994.0;;;17.1;100.0
73316;BME280;61545;53.726;-0.444;2023-08-01T06:33:59;994.1;;;16.0;100.0
73316;BME280;61545;53.726;-0.444;2023-08-01T06:38:59;994.1;;;unknown;100.0
73316;BME280;61545;53.726;-0.444;2023-08-01T06:43:59;994.2;;;15.4;100.0
73316;BME280;61545;53.726;-0.444;2023-08-01T06:48:59;994.3;;;15.2;100.0
73316;BME280;61545;53.726;-0.444;2023-08-01T06:53:59;994.4;;;15.2;100.0
73316;BME280;61545;53.726;-0.444;2023-08-01T06:58:59;994.5;;;15.2;100.0
73316;BME280;61545;53.726;-0.444;2023-08-01T07:03:59;994.5;;;15.2;100.0
73316;BME280;61545;53.726;-0.444;2023-08-01T07:08:59;994.5;;;unknown;100.0
73316;BME280;61545;53.726;-0.444;2023-08-01T07:13:59;994.6;;;15.0;100.0
73316;BME280;61545;53.726;-0.444;2023-08-01T07:19:00;994.6;;;15.0;100.0
73316;BME280;61545;53.726;-0.444;2023-08-01T07:23:59;994.6;;;unknown;100.0
73316;BME280;61545;53.726;-0.444;2023-08-01T07:28:59;994.6;;;15.1;100.0
73316;BME280;61545;53.726;-0.444;2023-08-01T07:33:59;994.7;;;15.2;100.0
73316;BME280;61545;53.726;-0.444;2023-08-01T07:38:59;994.7;;;15.3;100.0
73316;BME280;61545;53.726;-0.444;2023-08-01T07:44:00;994.7;;;15.4;100.0
73316;BME280;61545;53.726;-0.444;2023-08-01T07:48:59;994.8;;;15.4;100.0
73316;BME280;61545;53.726;-0.444;2023-08-01T07:53:59;994.8;;;15.3;100.0
73316;BME280;61545;53.726;-0.444;2023-08-01T07:58:59;994.9;;;15.3;100.0
73316;BME280;61545;53.726;-0.444;2023-08-01T08:04:00;994.9;;;15.3;100.0
73316;BME280;61545;53.726;-0.444;2023-08-01T08:08:59;994.9;;;unknown;100.0
73316;BME280;61545;53.726;-0.444;2023-08-01T08:13:59;995.0;;;15.4;100.0
73316;BME280;61545;53.726;-0.444;2023-08-01T08:18:59;995.0;;;unknown;100.0
73316;BME280;61545;53.726;-0.444;2023-08-01T08:24:00;995.0;;;unknown;100.0
73316;BME280;61545;53.726;-0.444;2023-08-01T08:28:59;995.0;;;15.4;100.0
73316;BME280;61545;53.726;-0.444;2023-08-01T08:33:59;995.0;;;15.5;100.0
73316;BME280;61545;53.726;-0.444;2023-08-01T08:39:00;995.0;;;15.5;100.0
73316;BME280;61545;53.726;-0.444;2023-08-01T08:44:00;995.1;;;15.5;100.0
73316;BME280;61545;53.726;-0.444;2023-08-01T08:49:00;995.1;;;15.6;100.0
73316;BME280;61545;53.726;-0.444;2023-08-01T08:53:59;995.1;;;15.5;100.0
73316;BME280;61545;53.726;-0.444;2023-08-01T08:58:59;995.2;;;15.5;100.0
73316;BME280;61545;53.726;-0.444;2023-08-01T09:04:00;995.2;;;15.7;100.0
73316;BME280;61545;53.726;-0.444;2023-08-01T09:09:02;995.2;;;15.9;100.0
73316;BME280;61545;53.726;-0.444;2023-08-01T09:13:59;995.2;;;15.9;100.0
73316;BME280;61545;53.726;-0.444;2023-08-01T09:18:59;995.3;;;15.9;100.0
73316;BME280;61545;53.726;-0.444;2023-08-01T09:24:07;995.3;;;15.9;100.0
73316;BME280;61545;53.726;-0.444;2023-08-01T09:29:00;995.4;;;15.8;100.0
73316;BME280;61545;53.726;-0.444;2023-08-01T09:34:00;995.4;;;15.8;100.0
73316;BME280;61545;53.726;-0.444;2023-08-01T09:39:00;995.5;;;15.9;100.0
73316;BME280;61545;53.726;-0.444;2023-08-01T09:44:00;995.5;;;16.0;100.0
73316;BME280;61545;53.726;-0.444;2023-08-01T09:49:06;995.6;;;16.2;100.0
73316;BME280;61545;53.726;-0.444;2023-08-01T09:54:00;995.6;;;16.0;100.0
73316;BME280;61545;53.726;-0.444;2023-08-01T09:59:00;995.5;;;unknown;100.0
73316;BME280;61545;53.726;-0.444;2023-08-01T10:04:00;995.6;;;unknown;100.0
73316;BME280;61545;53.726;-0.444;2023-08-01T10:09:00;995.6;;;16.1;100.0
73316;BME280;61545;53.726;-0.444;2023-08-01T10:14:00;995.6;;;16.1;100.0
73316;BME280;61545;53.726;-0.444;2023-08-01T10:19:00;995.7;;;unknown;100.0
73316;BME280;61545;53.726;-0.444;2023-08-01T10:24:00;995.7;;;15.9;100.0
73316;BME280;61545;53.726;-0.444;2023-08-01T10:29:00;995.8;;;unknown;100.0
73316;BME280;61545;53.726;-0.444;2023-08-01T10:34:04;995.6;;;16.4;100.0
73316;BME280;61545;53.726;-0.444;2023-08-01T10:39:00;995.7;;;16.5;100.0
73316;BME280;61545;53.726;-0.444;2023-08-01T10:44:07;995.7;;;16.2;100.0
73316;BME280;61545;53.726;-0.444;2023-08-01T10:49:00;995.8;;;16.2;100.0
73316;BME280;61545;53.726;-0.444;2023-08-01T10:54:00;995.9;;;unknown;100.0
73316;BME280;61545;53.726;-0.444;2023-08-01T10:59:00;995.9;;;16.2;100.0
73316;BME280;61545;53.726;-0.444;2023-08-01T11:04:00;995.9;;;unknown;100.0
73316;BME280;61545;53.726;-0.444;2023-08-01T11:09:00;995.9;;;unknown;100.0
73316;BME280;61545;53.726;-0.444;2023-08-01T11:14:00;995.9;;;unknown;100.0
73316;BME280;61545;53.726;-0.444;2023-08-01T11:19:00;995.9;;;16.8;100.0
73316;BME280;61545;53.726;-0.444;2023-08-01T11:24:00;995.9;;;16.7;100.0
73316;BME280;61545;53.726;-0.444;2023-08-01T11:29:01;996.0;;;16.4;100.0
73316;BME280;61545;53.726;-0.444;2023-08-01T11:34:00;996.0;;;17.2;100.0
73316;BME280;61545;53.726;-0.444;2023-08-01T11:39:00;996.1;;;17.1;100.0
73316;BME280;61545;53.726;-0.444;2023-08-01T11:44:02;996.0;;;17.9;100.0
73316;BME280;61545;53.726;-0.444;2023-08-01T11:49:00;996.0;;;17.3;100.0
73316;BME280;61545;53.726;-0.444;2023-08-01T11:54:00;996.1;;;unknown;100.0
73316;BME280;61545;53.726;-0.444;2023-08-01T11:59:07;996.1;;;17.4;100.0
73316;BME280;61545;53.726;-0.444;2023-08-01T12:04:00;996.1;;;17.5;100.0
73316;BME280;61545;53.726;-0.444;2023-08-01T12:09:06;996.1;;;17.2;100.0
73316;BME280;61545;53.726;-0.444;2023-08-01T12:14:01;996.1;;;unknown;100.0
73316;BME280;61545;53.726;-0.444;2023-08-01T12:19:00;996.1;;;unknown;100.0
73316;BME280;61545;53.726;-0.444;2023-08-01T12:24:00;996.1;;;17.4;100.0
73316;BME280;61545;53.726;-0.444;2023-08-01T12:29:00;996.1;;;17.7;100.0
73316;BME280;61545;53.726;-0.444;2023-08-01T12:34:00;996.1;;;18.1;100.0
73316;BME280;61545;53.726;-0.444;2023-08-01T12:39:00;996.2;;;17.8;100.0
73316;BME280;61545;53.726;-0.444;2023-08-01T12:44:00;996.1;;;18.1;100.0
73316;BME280;61545;53.726;-0.444;2023-08-01T12:49:00;996.2;;;18.0;100.0
73316;BME280;61545;53.726;-0.444;2023-08-01T12:54:00;996.3;;;18.0;100.0
73316;BME280;61545;53.726;-0.444;2023-08-01T12:59:00;996.3;;;unknown;100.0
73316;BME280;61545;53.726;-0.444;2023-08-01T13:04:00;996.4;;;17.5;100.0
73316;BME280;61545;53.726;-0.444;2023-08-01T13:09:00;996.5;;;17.7;100.0
73316;BME280;61545;53.726;-0.444;2023-08-01T13:14:00;996.5;;;16.9;100.0
73316;BME280;61545;53.726;-0.444;2023-08-01T13:19:00;996.6;;;16.9;100.0
73316;BME280;61545;53.726;-0.444;2023-08-01T13:24:00;996.6;;;16.7;100.0
73316;BME280;61545;53.726;-0.444;2023-08-01T13:29:00;996.7;;;17.0;100.0
73316;BME280;61545;53.726;-0.444;2023-08-01T13:34:00;996.6;;;17.2;100.0
73316;BME280;61545;53.726;-0.444;2023-08-01T13:39:00;996.6;;;17.5;100.0
73316;BME280;61545;53.726;-0.444;2023-08-01T13:44:00;996.5;;;17.9;100.0
73316;BME280;61545;53.726;-0.444;2023-08-01T13:49:00;996.5;;;18.2;100.0
73316;BME280;61545;53.726;-0.444;2023-08-01T13:54:00;996.5;;;unknown;100.0
73316;BME280;61545;53.726;-0.444;2023-08-01T13:59:00;996.4;;;18.3;100.0
73316;BME280;61545;53.726;-0.444;2023-08-01T14:04:00;996.3;;;unknown;100.0
73316;BME280;61545;53.726;-0.444;2023-08-01T14:09:00;996.3;;;18.5;100.0
73316;BME280;61545;53.726;-0.444;2023-08-01T14:14:00;996.3;;;18.7;100.0
73316;BME280;61545;53.726;-0.444;2023-08-01T14:19:00;996.3;;;unknown;100.0
73316;BME280;61545;53.726;-0.444;2023-08-01T14:24:00;996.3;;;unknown;100.0
73316;BME280;61545;53.726;-0.444;2023-08-01T14:29:00;996.3;;;18.7;100.0
73316;BME280;61545;53.726;-0.444;2023-08-01T14:34:00;996.4;;;19.2;100.0
73316;BME280;61545;53.726;-0.444;2023-08-01T14:39:00;996.3;;;unknown;100.0
73316;BME280;61545;53.726;-0.444;2023-08-01T14:44:00;996.3;;;18.6;100.0
73316;BME280;61545;53.726;-0.444;2023-08-01T14:49:00;996.4;;;18.7;100.0
73316;BME280;61545;53.726;-0.444;2023-08-01T14:54:00;996.4;;;unknown;100.0
73316;BME280;61545;53.726;-0.444;2023-08-01T14:59:00;996.3;;;18.6;100.0
73316;BME280;61545;53.726;-0.444;2023-08-01T15:04:00;996.3;;;18.4;100.0
73316;BME280;61545;53.726;-0.444;2023-08-01T15:09:00;996.3;;;18.2;100.0
73316;BME280;61545;53.726;-0.444;2023-08-01T15:14:00;996.4;;;18.2;100.0
73316;BME280;61545;53.726;-0.444;2023-08-01T15:19:00;996.4;;;18.1;100.0
73316;BME280;61545;53.726;-0.444;2023-08-01T15:24:00;996.3;;;17.8;100.0
73316;BME280;61545;53.726;-0.444;2023-08-01T15:29:00;996.3;;;unknown;100.0
73316;BME280;61545;53.726;-0.444;2023-08-01T15:34:00;996.3;;;17.9;100.0
73316;BME280;61545;53.726;-0.444;2023-08-01T15:39:00;996.2;;;17.9;100.0
73316;BME280;61545;53.726;-0.444;2023-08-01T15:44:00;996.3;;;17.9;100.0
73316;BME280;61545;53.726;-0.444;2023-08-01T15:49:00;996.4;;;17.9;100.0
73316;BME280;61545;53.726;-0.444;2023-08-01T15:54:02;996.3;;;17.8;100.0
73316;BME280;61545;53.726;-0.444;2023-08-01T15:59:00;996.4;;;17.7;100.0
73316;BME280;61545;53.726;-0.444;2023-08-01T16:04:00;996.4;;;17.5;100.0
73316;BME280;61545;53.726;-0.444;2023-08-01T16:09:00;996.4;;;17.5;100.0
73316;BME280;61545;53.726;-0.444;2023-08-01T16:14:00;996.3;;;17.4;100.0
73316;BME280;61545;53.726;-0.444;2023-08-01T16:19:00;996.4;;;17.4;100.0
73316;BME280;61545;53.726;-0.444;2023-08-01T16:24:00;996.3;;;17.2;100.0
73316;BME280;61545;53.726;-0.444;2023-08-01T16:29:00;996.2;;;17.3;100.0
73316;BME280;61545;53.726;-0.444;2023-08-01T16:34:00;996.1;;;17.4;100.0
73316;BME280;61545;53.726;-0.444;2023-08-01T16:39:00;996.0;;;17.5;100.0
73316;BME280;61545;53.726;-0.444;2023-08-01T16:44:00;996.0;;;17.5;100.0
73316;BME280;61545;53.726;-0.444;2023-08-01T16:49:00;996.0;;;17.5;100.0
73316;BME280;61545;53.726;-0.444;2023-08-01T16:54:00;996.0;;;17.5;100.0
73316;BME280;61545;53.726;-0.444;2023-08-01T16:59:00;995.9;;;17.7;100.0
73316;BME280;61545;53.726;-0.444;2023-08-01T17:04:00;996.0;;;17.7;100.0
73316;BME280;61545;53.726;-0.444;2023-08-01T17:09:00;996.1;;;17.6;100.0
73316;BME280;61545;53.726;-0.444;2023-08-01T17:14:00;996.1;;;17.4;100.0
73316;BME280;61545;53.726;-0.444;2023-08-01T17:19:00;995.9;;;17.4;100.0
73316;BME280;61545;53.726;-0.444;2023-08-01T17:24:00;995.9;;;17.5;100.0
73316;BME280;61545;53.726;-0.444;2023-08-01T17:29:01;996.0;;;17.4;100.0
73316;BME280;61545;53.726;-0.444;2023-08-01T17:34:00;995.9;;;17.4;100.0
73316;BME280;61545;53.726;-0.444;2023-08-01T17:39:00;995.9;;;17.4;100.0
73316;BME280;61545;53.726;-0.444;2023-08-01T17:44:00;995.8;;;17.5;100.0
73316;BME280;61545;53.726;-0.444;2023-08-01T17:49:00;995.7;;;17.5;100.0
73316;BME280;61545;53.726;-0.444;2023-08-01T17:54:00;995.7;;;17.5;100.0
73316;BME280;61545;53.726;-0.444;2023-08-01T17:59:00;995.7;;;17.5;100.0
73316;BME280;61545;53.726;-0.444;2023-08-01T18:04:00;995.6;;;17.5;100.0
73316;BME280;61545;53.726;-0.444;2023-08-01T18:09:00;995.5;;;17.6;100.0
73316;BME280;61545;53.726;-0.444;2023-08-01T18:14:00;995.5;;;unknown;100.0
73316;BME280;61545;53.726;-0.444;2023-08-01T18:19:00;995.5;;;17.5;100.0
73316;BME280;61545;53.726;-0.444;2023-08-01T18:24:00;995.4;;;17.4;100.0
73316;BME280;61545;53.726;-0.444;2023-08-01T18:29:00;995.2;;;17.4;100.0
73316;BME280;61545;53.726;-0.444;2023-08-01T18:34:00;995.1;;;17.5;100.0
73316;BME280;61545;53.726;-0.444;2023-08-01T18:39:00;995.1;;;17.5;100.0
73316;BME280;61545;53.726;-0.444;2023-08-01T18:44:00;995.0;;;17.4;100.0
73316;BME280;61545;53.726;-0.444;2023-08-01T18:49:00;995.0;;;17.2;100.0
73316;BME280;61545;53.726;-0.444;2023-08-01T18:54:00;995.2;;;17.2;100.0
73316;BME280;61545;53.726;-0.444;2023-08-01T18:59:00;995.2;;;17.1;100.0
73316;BME280;61545;53.726;-0.444;2023-08-01T19:04:00;995.3;;;17.1;100.0
73316;BME280;61545;53.726;-0.444;2023-08-01T19:09:00;995.3;;;17.1;100.0
73316;BME280;61545;53.726;-0.444;2023-08-01T19:14:00;995.2;;;17.0;100.0
73316;BME280;61545;53.726;-0.444;2023-08-01T19:19:00;995.3;;;17.0;100.0
73316;BME280;61545;53.726;-0.444;2023-08-01T19:24:00;995.5;;;17.1;100.0
73316;BME280;61545;53.726;-0.444;2023-08-01T19:29:00;995.3;;;17.0;100.0
73316;BME280;61545;53.726;-0.444;2023-08-01T19:34:00;995.2;;;17.0;100.0
73316;BME280;61545;53.726;-0.444;2023-08-01T19:39:00;995.1;;;17.0;100.0
73316;BME280;61545;53.726;-0.444;2023-08-01T19:44:00;995.1;;;16.9;100.0
73316;BME280;61545;53.726;-0.444;2023-08-01T19:49:00;995.1;;;16.9;100.0
73316;BME280;61545;53.726;-0.444;2023-08-01T19:54:00;995.0;;;16.9;100.0
73316;BME280;61545;53.726;-0.444;2023-08-01T19:59:00;995.0;;;16.9;100.0
73316;BME280;61545;53.726;-0.444;2023-08-01T20:04:00;994.8;;;16.8;100.0
73316;BME280;61545;53.726;-0.444;2023-08-01T20:09:00;994.7;;;16.7;100.0
73316;BME280;61545;53.726;-0.444;2023-08-01T20:14:00;994.7;;;16.8;100.0
73316;BME280;61545;53.726;-0.444;2023-08-01T20:19:00;994.7;;;16.7;100.0
73316;BME280;61545;53.726;-0.444;2023-08-01T20:24:00;994.7;;;16.7;100.0
73316;BME280;61545;53.726;-0.444;2023-08-01T20:29:00;994.8;;;16.7;100.0
73316;BME280;61545;53.726;-0.444;2023-08-01T20:34:00;994.9;;;16.6;100.0
73316;BME280;61545;53.726;-0.444;2023-08-01T20:39:00;994.7;;;16.6;100.0
73316;BME280;61545;53.726;-0.444;2023-08-01T20:44:00;994.7;;;16.5;100.0
73316;BME280;61545;53.726;-0.444;2023-08-01T20:49:00;994.8;;;16.6;100.0
73316;BME280;61545;53.726;-0.444;2023-08-01T20:54:00;994.7;;;16.5;100.0
73316;BME280;61545;53.726;-0.444;2023-08-01T20:59:00;994.9;;;unknown;100.0
73316;BME280;61545;53.726;-0.444;2023-08-01T21:04:00;994.7;;;16.4;100.0
73316;BME280;61545;53.726;-0.444;2023-08-01T21:09:00;994.7;;;16.4;100.0
73316;BME280;61545;53.726;-0.444;2023-08-01T21:14:00;994.5;;;16.4;100.0
73316;BME280;61545;53.726;-0.444;2023-08-01T21:19:00;994.4;;;16.4;100.0
73316;BME280;61545;53.726;-0.444;2023-08-01T21:24:00;994.5;;;16.4;100.0
73316;BME280;61545;53.726;-0.444;2023-08-01T21:29:01;994.4;;;16.4;100.0
73316;BME280;61545;53.726;-0.444;2023-08-01T21:34:01;994.4;;;16.4;100.0
73316;BME280;61545;53.726;-0.444;2023-08-01T21:39:00;994.3;;;16.3;100.0
73316;BME280;61545;53.726;-0.444;2023-08-01T21:44:00;994.2;;;unknown;100.0
73316;BME280;61545;53.726;-0.444;2023-08-01T21:49:00;994.2;;;16.4;100.0
73316;BME280;61545;53.726;-0.444;2023-08-01T21:54:00;994.2;;;unknown;100.0
73316;BME280;61545;53.726;-0.444;2023-08-01T21:59:00;994.1;;;16.4;100.0
73316;BME280;61545;53.726;-0.444;2023-08-01T22:04:00;994.0;;;16.4;100.0
73316;BME280;61545;53.726;-0.444;2023-08-01T22:09:00;993.7;;;16.1;100.0
73316;BME280;61545;53.726;-0.444;2023-08-01T22:14:00;993.6;;;16.2;100.0
73316;BME280;61545;53.726;-0.444;2023-08-01T22:19:00;993.5;;;16.2;100.0
73316;BME280;61545;53.726;-0.444;2023-08-01T22:24:00;993.4;;;16.3;100.0
73316;BME280;61545;53.726;-0.444;2023-08-01T22:29:00;993.3;;;16.2;100.0
73316;BME280;61545;53.726;-0.444;2023-08-01T22:34:00;993.1;;;16.1;100.0
73316;BME280;61545;53.726;-0.444;2023-08-01T22:39:00;992.9;;;unknown;100.0
73316;BME280;61545;53.726;-0.444;2023-08-01T22:44:00;993.0;;;15.9;100.0
73316;BME280;61545;53.726;-0.444;2023-08-01T22:49:00;993.0;;;16.0;100.0
73316;BME280;61545;53.726;-0.444;2023-08-01T22:54:00;993.0;;;15.9;100.0
73316;BME280;61545;53.726;-0.444;2023-08-01T22:59:00;993.0;;;15.9;100.0
73316;BME280;61545;53.726;-0.444;2023-08-01T23:04:00;992.9;;;unknown;100.0
73316;BME280;61545;53.726;-0.444;2023-08-01T23:09:00;992.9;;;15.9;100.0
73316;BME280;61545;53.726;-0.444;2023-08-01T23:14:00;992.8;;;unknown;100.0
73316;BME280;61545;53.726;-0.444;2023-08-01T23:19:00;992.7;;;15.9;100.0
73316;BME280;61545;53.726;-0.444;2023-08-01T23:24:00;992.6;;;15.8;100.0
73316;BME280;61545;53.726;-0.444;2023-08-01T23:29:00;992.5;;;unknown;100.0
73316;BME280;61545;53.726;-0.444;2023-08-01T23:34:00;992.3;;;15.8;100.0
73316;BME280;61545;53.726;-0.444;2023-08-01T23:39:00;992.3;;;unknown;100.0
73316;BME280;61545;53.726;-0.444;2023-08-01T23:44:00;992.2;;;15.7;100.0
73316;BME280;61545;53.726;-0.444;2023-08-01T23:49:00;992.1;;;15.7;100.0
73316;BME280;61545;53.726;-0.444;2023-08-01T23:54:00;992.0;;;15.7;100.0
73316;BME280;61545;53.726;-0.444;2023-08-01T23:59:00;991.9;;;15.7;100.0
